Time;durP1;ratioP1;P1;durP2;ratioP2;P2;SDS_P1;SDS_P2;PMS_P1;PMS_P2;Temp;Humidity;BMP_temperature;BMP_pressure;BME280_temperature;BME280_humidity;BME280_pressure;Samples;Min_cycle;Max_cycle;Signal;HPM_P1;HPM_P2
2022/08/07 00:01:33;;;;;;;12.57;8.55;;;;;;;21.72;63.84;97336.06;10225094;28;20052;-56
2022/08/07 00:06:32;;;;;;;13.82;8.60;;;;;;;21.72;64.05;97339.56;10213988;28;20511;-56
2022/08/07 00:11:31;;;;;;;10.18;7.93;;;;;;;21.71;64.20;97334.34;10213084;28;20508;-56
2022/08/07 00:16:30;;;;;;;10.38;8.43;;;;;;;21.68;63.96;97331.88;10220374;28;20030;-56
2022/08/07 00:21:30;;;;;;;11.88;8.60;;;;;;;21.61;64.01;97339.25;10211766;28;20073;-56
2022/08/07 00:26:29;;;;;;;11.57;8.80;;;;;;;21.42;65.67;97351.72;10212939;28;20499;-56
2022/08/07 00:31:28;;;;;;;9.48;8.20;;;;;;;21.17;66.79;97352.06;10212382;28;20504;-56
2022/08/07 00:36:28;;;;;;;10.98;8.77;;;;;;;20.95;67.61;97361.03;10212083;28;20082;-56
2022/08/07 00:41:33;;;;;;;13.00;9.43;;;;;;;20.96;67.51;97362.78;10233633;28;20073;-56
2022/08/07 00:46:32;;;;;;;12.90;10.07;;;;;;;20.98;67.56;97366.16;10224746;28;20061;-56
2022/08/07 00:51:31;;;;;;;11.75;8.82;;;;;;;21.01;67.36;97370.44;10211738;28;20034;-56
2022/08/07 00:56:30;;;;;;;10.40;8.60;;;;;;;21.07;66.88;97370.13;10211659;28;20062;-56
2022/08/07 01:01:30;;;;;;;11.98;9.43;;;;;;;21.14;66.60;97366.25;10211597;28;20031;-56
2022/08/07 01:06:29;;;;;;;12.35;9.65;;;;;;;21.26;66.46;97381.50;10249517;28;20057;-56
2022/08/07 01:11:29;;;;;;;12.40;9.80;;;;;;;21.05;68.69;97444.06;10252412;28;20483;-56
2022/08/07 01:16:29;;;;;;;13.23;8.43;;;;;;;20.44;71.48;97481.22;10240134;28;20070;-56
2022/08/07 01:21:28;;;;;;;13.02;9.35;;;;;;;20.33;73.43;97472.91;10211709;28;20058;-56
2022/08/07 01:26:27;;;;;;;16.58;11.20;;;;;;;20.27;76.98;97474.91;10215835;28;20488;-57
2022/08/07 01:31:32;;;;;;;12.73;10.05;;;;;;;20.33;77.96;97491.34;10218550;28;20058;-56
2022/08/07 01:36:31;;;;;;;12.82;9.50;;;;;;;20.18;79.73;97488.47;10218263;28;20074;-56
2022/08/07 01:41:31;;;;;;;13.02;9.77;;;;;;;20.10;80.51;97481.84;10241530;28;20046;-56
2022/08/07 01:46:30;;;;;;;15.25;10.27;;;;;;;20.04;81.46;97469.78;10234728;28;20069;-56
2022/08/07 01:51:31;;;;;;;12.45;10.05;;;;;;;20.06;82.87;97467.94;10216771;28;20069;-56
2022/08/07 01:56:50;;;;;;;12.95;10.05;;;;;;;20.09;82.90;97454.63;10217870;28;20059;-56
2022/08/07 02:01:56;;;;;;;12.73;9.07;;;;;;;20.07;83.31;97446.81;10216571;28;20074;-56
2022/08/07 02:06:57;;;;;;;12.25;9.65;;;;;;;20.11;83.16;97436.13;10217814;28;20074;-56
2022/08/07 02:11:57;;;;;;;12.43;10.23;;;;;;;20.18;83.82;97446.31;10217931;28;20058;-56
2022/08/07 02:16:57;;;;;;;13.07;11.00;;;;;;;20.22;84.09;97444.41;10215941;28;20061;-56
2022/08/07 02:21:58;;;;;;;13.50;11.13;;;;;;;20.23;84.66;97431.16;10215851;28;20062;-56
2022/08/07 02:27:01;;;;;;;13.60;10.60;;;;;;;20.17;85.49;97435.88;10217186;28;20491;-56
2022/08/07 02:32:02;;;;;;;14.43;11.45;;;;;;;20.08;85.59;97416.06;10234005;28;20786;-56
2022/08/07 02:37:04;;;;;;;16.23;11.45;;;;;;;20.13;86.53;97423.75;10216224;28;20067;-56
2022/08/07 02:42:05;;;;;;;20.73;12.07;;;;;;;20.11;86.50;97415.91;10246736;28;20069;-56
2022/08/07 02:47:05;;;;;;;15.75;11.25;;;;;;;20.15;86.50;97417.47;10232671;28;20063;-56
2022/08/07 02:52:08;;;;;;;16.30;12.35;;;;;;;20.12;87.19;97412.38;10217437;28;20081;-56
2022/08/07 02:57:12;;;;;;;16.27;12.57;;;;;;;20.06;87.54;97412.63;10219044;28;20066;-56
2022/08/07 03:02:13;;;;;;;17.58;12.70;;;;;;;20.00;87.80;97412.88;10219635;28;20504;-56
2022/08/07 03:07:14;;;;;;;16.35;12.52;;;;;;;19.93;87.66;97416.72;10218477;28;20610;-56
2022/08/07 03:12:14;;;;;;;15.65;11.80;;;;;;;19.89;87.89;97421.28;10218305;28;20042;-56
2022/08/07 03:17:14;;;;;;;16.98;12.77;;;;;;;19.85;87.57;97420.53;10218416;28;20472;-56
2022/08/07 03:22:15;;;;;;;18.00;13.15;;;;;;;19.84;87.55;97424.13;10217932;28;20485;-56
2022/08/07 03:27:15;;;;;;;16.60;12.25;;;;;;;19.79;87.83;97412.94;10217940;28;20531;-56
2022/08/07 03:32:18;;;;;;;17.40;12.45;;;;;;;19.79;87.81;97420.84;10217237;28;20507;-56
2022/08/07 03:37:20;;;;;;;15.48;12.25;;;;;;;19.77;87.89;97422.69;10216369;28;20078;-56
2022/08/07 03:42:20;;;;;;;15.93;12.68;;;;;;;19.77;88.37;97432.34;10242814;28;20065;-56
2022/08/07 03:47:19;;;;;;;15.23;12.10;;;;;;;19.79;88.88;97433.13;10225129;28;20051;-56
2022/08/07 03:52:21;;;;;;;15.82;12.43;;;;;;;19.89;88.79;97429.19;10214057;28;20070;-56
2022/08/07 03:57:23;;;;;;;17.20;12.68;;;;;;;19.91;88.53;97439.63;10213442;28;20053;-56
2022/08/07 04:02:23;;;;;;;16.17;12.02;;;;;;;19.83;88.28;97432.91;10213341;28;20464;-57
2022/08/07 04:07:22;;;;;;;16.63;12.52;;;;;;;19.82;88.53;97447.03;10212507;28;20065;-56
2022/08/07 04:12:21;;;;;;;15.07;11.38;;;;;;;19.92;88.39;97447.47;10211846;28;20066;-56
2022/08/07 04:17:20;;;;;;;16.85;13.05;;;;;;;19.95;88.38;97457.88;10213969;28;20158;-56
2022/08/07 04:22:21;;;;;;;15.07;11.25;;;;;;;19.78;89.36;97461.22;10213531;28;20062;-56
2022/08/07 04:27:20;;;;;;;17.63;12.18;;;;;;;19.79;89.78;97470.84;10211216;28;20081;-56
2022/08/07 04:32:19;;;;;;;15.27;12.10;;;;;;;19.84;89.50;97476.78;10212110;28;20034;-57
2022/08/07 04:37:19;;;;;;;16.73;11.85;;;;;;;19.97;89.38;97476.25;10213046;28;20081;-57
2022/08/07 04:42:17;;;;;;;20.35;12.45;;;;;;;20.12;88.54;97472.97;10243575;28;20508;-57
2022/08/07 04:47:28;;;;;;;15.95;11.77;;;;;;;20.23;87.87;97475.09;10226778;28;20464;-57
2022/08/07 04:52:38;;;;;;;16.05;11.18;;;;;;;20.37;87.24;97487.66;10213370;28;20065;-57
2022/08/07 04:57:45;;;;;;;16.13;11.88;;;;;;;20.49;86.69;97485.38;10213844;28;20062;-57
2022/08/07 05:03:00;;;;;;;13.15;10.77;;;;;;;20.52;86.37;97486.13;10225038;28;20496;-57
2022/08/07 05:08:03;;;;;;;12.90;10.90;;;;;;;20.55;86.15;97505.31;10223370;28;20065;-57
2022/08/07 05:13:18;;;;;;;13.25;10.25;;;;;;;20.45;87.16;97509.31;10224710;28;20061;-57
2022/08/07 05:18:28;;;;;;;14.35;11.27;;;;;;;20.46;87.83;97506.59;10253669;28;20061;-57
2022/08/07 05:23:36;;;;;;;13.18;10.82;;;;;;;20.69;86.43;97513.44;10255621;28;20515;-57
2022/08/07 05:28:37;;;;;;;12.43;9.63;;;;;;;20.88;85.54;97524.00;10248290;28;20050;-57
2022/08/07 05:33:37;;;;;;;12.88;9.82;;;;;;;21.05;84.69;97514.44;10259640;28;20535;-57
2022/08/07 05:38:38;;;;;;;14.52;10.20;;;;;;;21.34;84.53;97510.47;10234641;28;20070;-57
2022/08/07 05:43:39;;;;;;;14.48;11.25;;;;;;;21.47;84.02;97502.78;10226259;28;20074;-57
2022/08/07 05:48:39;;;;;;;14.63;10.75;;;;;;;21.75;83.01;97507.56;10224417;28;20073;-57
2022/08/07 05:53:38;;;;;;;14.43;10.27;;;;;;;21.95;82.46;97518.00;10225450;28;20054;-57
2022/08/07 05:58:39;;;;;;;16.00;10.93;;;;;;;22.02;81.55;97523.00;10257641;28;20030;-57
2022/08/07 06:03:40;;;;;;;15.25;10.75;;;;;;;22.09;81.82;97527.03;10246098;28;20053;-57
2022/08/07 06:08:40;;;;;;;13.82;11.10;;;;;;;22.29;80.82;97534.78;10247451;28;20068;-57
2022/08/07 06:13:39;;;;;;;14.50;11.07;;;;;;;22.45;79.34;97536.63;10219066;28;20058;-57
2022/08/07 06:18:39;;;;;;;15.07;11.25;;;;;;;22.62;79.14;97539.22;10217011;28;20062;-57
2022/08/07 06:23:38;;;;;;;12.02;10.38;;;;;;;22.78;78.35;97549.88;10241442;28;20073;-57
2022/08/07 06:28:51;;;;;;;12.07;10.63;;;;;;;22.95;77.26;97533.09;10234424;28;20081;-57
2022/08/07 06:33:50;;;;;;;11.40;9.48;;;;;;;23.04;76.44;97545.81;10249085;28;20093;-57
2022/08/07 06:38:49;;;;;;;12.20;9.95;;;;;;;23.05;76.04;97530.81;10246795;28;20049;-57
2022/08/07 06:43:49;;;;;;;11.13;9.35;;;;;;;23.04;75.01;97532.59;10242696;28;20145;-57
2022/08/07 06:48:48;;;;;;;11.95;9.85;;;;;;;23.26;73.45;97540.22;10222298;28;20108;-57
2022/08/07 06:53:49;;;;;;;10.95;8.55;;;;;;;23.43;72.32;97542.75;10232020;28;20164;-57
2022/08/07 06:58:48;;;;;;;12.50;8.27;;;;;;;23.73;70.56;97538.50;10243074;28;20137;-57
2022/08/07 07:03:48;;;;;;;11.02;8.93;;;;;;;23.93;69.68;97539.97;10234759;28;20121;-57
2022/08/07 07:08:47;;;;;;;10.45;8.85;;;;;;;23.97;67.43;97539.69;10243059;28;20583;-57
2022/08/07 07:13:50;;;;;;;12.00;8.32;;;;;;;24.03;68.00;97538.50;10240826;28;20074;-57
2022/08/07 07:18:58;;;;;;;10.07;8.68;;;;;;;24.03;68.72;97544.66;10227021;28;20484;-57
2022/08/07 07:23:58;;;;;;;11.10;9.27;;;;;;;24.37;67.87;97550.63;10231148;28;20062;-57
2022/08/07 07:29:01;;;;;;;12.15;10.55;;;;;;;24.67;66.63;97555.00;10211015;28;20137;-57
2022/08/07 07:34:05;;;;;;;13.82;10.38;;;;;;;24.82;65.22;97545.25;10241205;28;20078;-57
2022/08/07 07:39:05;;;;;;;12.95;10.20;;;;;;;24.78;64.94;97551.69;10211321;28;20061;-57
2022/08/07 07:44:06;;;;;;;12.98;10.30;;;;;;;25.08;63.48;97540.97;10238713;28;20505;-57
2022/08/07 07:49:08;;;;;;;12.80;10.55;;;;;;;25.35;61.56;97538.38;10224532;28;20069;-57
2022/08/07 07:54:09;;;;;;;11.93;10.00;;;;;;;25.56;60.40;97535.31;10212154;28;20066;-57
2022/08/07 07:59:11;;;;;;;12.23;10.18;;;;;;;25.50;58.78;97539.19;10244526;28;20524;-57
2022/08/07 08:04:11;;;;;;;12.95;10.07;;;;;;;25.59;59.63;97535.94;10241592;28;20085;-57
2022/08/07 08:09:13;;;;;;;11.93;10.00;;;;;;;25.91;57.54;97535.66;10213583;28;20070;-57
2022/08/07 08:14:12;;;;;;;13.13;9.80;;;;;;;26.23;57.74;97535.28;10214047;28;20475;-57
2022/08/07 08:19:15;;;;;;;11.63;9.13;;;;;;;26.64;55.12;97536.91;10211945;28;20401;-56
2022/08/07 08:29:45;;;;;;;11.68;10.00;;;;;;;27.12;53.05;97539.75;10220548;28;20065;-57
2022/08/07 08:34:47;;;;;;;11.85;9.95;;;;;;;27.30;52.14;97538.41;10220413;28;20077;-57
2022/08/07 08:39:50;;;;;;;12.32;9.55;;;;;;;27.18;51.19;97531.31;10238948;28;20084;-57
2022/08/07 08:45:13;;;;;;;11.07;9.43;;;;;;;27.61;51.58;97530.88;10242309;28;20107;-57
2022/08/07 08:50:34;;;;;;;12.57;9.52;;;;;;;27.58;50.65;97539.09;10239471;28;20781;-57
2022/08/07 08:55:37;;;;;;;11.52;9.40;;;;;;;27.74;50.27;97531.69;10232634;28;20131;-57
2022/08/07 09:00:43;;;;;;;12.90;9.85;;;;;;;28.07;49.54;97521.25;10221053;28;20680;-56
2022/08/07 09:06:20;;;;;;;11.13;9.90;;;;;;;28.52;49.27;97522.22;10222720;28;20063;-57
2022/08/07 09:11:30;;;;;;;10.48;9.15;;;;;;;28.80;46.64;97530.78;10239985;28;20070;-56
2022/08/07 09:16:43;;;;;;;12.00;9.20;;;;;;;28.58;46.05;97526.25;10248971;28;20053;-57
2022/08/07 09:21:57;;;;;;;11.27;9.00;;;;;;;28.20;46.68;97517.56;10238726;28;20062;-57
2022/08/07 09:27:21;;;;;;;11.20;9.73;;;;;;;27.99;47.01;97512.03;10224176;28;20062;-56
2022/08/07 09:32:42;;;;;;;12.90;9.38;;;;;;;27.98;46.80;97502.31;10218521;28;20054;-56
2022/08/07 09:37:53;;;;;;;10.88;8.68;;;;;;;28.13;45.44;97505.66;10209729;28;20462;-56
2022/08/07 09:43:11;;;;;;;12.25;8.80;;;;;;;28.13;47.02;97495.00;10230181;28;20058;-56
2022/08/07 09:48:48;;;;;;;13.32;9.98;;;;;;;28.38;47.12;97487.75;10230161;28;20070;-57
2022/08/07 09:53:53;;;;;;;12.68;10.02;;;;;;;28.39;46.43;97487.63;10242361;28;20436;-57
2022/08/07 09:59:03;;;;;;;12.15;9.60;;;;;;;27.93;46.97;97490.28;10237704;28;20065;-56
2022/08/07 10:04:20;;;;;;;14.77;10.90;;;;;;;27.51;46.79;97487.22;10239482;28;20077;-56
2022/08/07 10:09:36;;;;;;;12.00;9.20;;;;;;;27.70;46.42;97497.34;10237396;28;20069;-56
2022/08/07 10:14:57;;;;;;;10.02;8.93;;;;;;;28.02;46.11;97497.59;10249710;28;20137;-56
2022/08/07 10:20:14;;;;;;;10.00;8.90;;;;;;;28.25;47.04;97493.19;10225811;28;20058;-56
2022/08/07 10:25:36;;;;;;;10.57;8.88;;;;;;;28.20;48.01;97482.88;10210310;28;20474;-56
2022/08/07 10:30:53;;;;;;;10.02;8.95;;;;;;;28.47;48.79;97503.03;10234193;28;20490;-57
2022/08/07 10:36:14;;;;;;;17.35;12.38;;;;;;;25.30;70.11;97522.72;10238907;28;20066;-59
2022/08/07 10:41:31;;;;;;;18.30;12.98;;;;;;;23.23;81.19;97529.78;10237942;28;20081;-60
2022/08/07 10:46:40;;;;;;;16.92;12.35;;;;;;;22.37;87.75;97529.97;10227999;28;20173;-60
2022/08/07 10:52:04;;;;;;;19.40;14.65;;;;;;;22.31;92.73;97540.84;10218951;28;20062;-60
2022/08/07 10:57:06;;;;;;;17.85;11.85;;;;;;;21.71;88.39;97521.84;10241340;28;20072;-61
2022/08/07 11:02:15;;;;;;;18.25;13.63;;;;;;;21.31;93.04;97518.53;10254348;28;20073;-61
2022/08/07 11:07:52;;;;;;;17.20;12.75;;;;;;;21.71;96.84;97508.66;10241983;28;20082;-60
2022/08/07 11:13:07;;;;;;;19.63;16.30;;;;;;;22.76;100.00;97509.44;10215666;28;20066;-60
2022/08/07 11:18:31;;;;;;;17.73;13.60;;;;;;;23.72;100.00;97495.22;10233690;28;20081;-61
2022/08/07 11:23:30;;;;;;;15.32;11.93;;;;;;;24.43;100.00;97499.00;10245696;28;20764;-61
2022/08/07 11:28:38;;;;;;;13.85;10.23;;;;;;;24.43;90.55;97521.09;10240009;28;20030;-60
2022/08/07 11:33:46;;;;;;;12.48;9.20;;;;;;;24.28;84.28;97514.88;10222652;28;20102;-59
2022/08/07 11:38:53;;;;;;;;;;;;;;;24.14;79.05;97490.97;10242050;28;20069;-59
2022/08/07 11:44:13;;;;;;;11.82;9.48;;;;;;;24.49;78.49;97480.06;10237154;28;19952;-59
2022/08/07 11:49:28;;;;;;;12.60;9.93;;;;;;;24.79;76.32;97466.66;10224731;28;20094;-59
2022/08/07 11:54:34;;;;;;;10.55;8.95;;;;;;;25.09;75.70;97457.75;10236730;28;20491;-57
2022/08/07 11:59:42;;;;;;;12.98;10.02;;;;;;;25.44;74.86;97458.09;10227555;28;20129;-57
2022/08/07 12:04:48;;;;;;;11.53;9.43;;;;;;;25.63;71.53;97456.91;10207628;28;20078;-57
2022/08/07 12:09:55;;;;;;;10.88;8.95;;;;;;;25.90;73.26;97449.72;10230451;28;20072;-57
2022/08/07 12:15:02;;;;;;;13.77;9.70;;;;;;;26.10;68.80;97429.72;10243630;28;20140;-57
2022/08/07 12:20:11;;;;;;;12.20;10.30;;;;;;;26.65;67.89;97446.34;10230462;28;20081;-57
2022/08/07 12:30:35;;;;;;;12.45;9.35;;;;;;;27.86;65.16;97439.25;10229105;28;20066;-57
2022/08/07 12:35:35;;;;;;;11.13;8.90;;;;;;;27.79;54.88;97440.69;10228174;28;20074;-57
2022/08/07 12:40:36;;;;;;;11.60;8.52;;;;;;;27.77;55.03;97429.28;10238463;28;20499;-57
2022/08/07 12:45:54;;;;;;;10.77;8.38;;;;;;;28.35;51.74;97439.97;10236185;28;20133;-58
2022/08/07 12:51:01;;;;;;;11.25;9.00;;;;;;;28.10;51.83;97431.19;10209596;28;20502;-57
2022/08/07 12:56:30;;;;;;;10.30;8.63;;;;;;;28.39;48.22;97452.09;10218759;28;20077;-58
2022/08/07 13:01:48;;;;;;;10.38;8.60;;;;;;;28.49;48.69;97439.72;10199527;28;20162;-58
2022/08/07 13:07:26;;;;;;;10.80;8.25;;;;;;;28.31;48.20;97434.00;10235632;28;20543;-57
2022/08/07 13:12:28;;;;;;;9.83;8.33;;;;;;;28.07;48.90;97431.44;10208279;28;20433;-57
2022/08/07 13:17:41;;;;;;;9.90;8.13;;;;;;;28.20;48.54;97434.00;10237904;28;20322;-57
2022/08/07 13:22:48;;;;;;;8.93;7.95;;;;;;;28.63;47.42;97428.78;10223510;28;20572;-57
2022/08/07 13:27:52;;;;;;;10.55;8.48;;;;;;;28.81;47.08;97425.66;10217889;28;20074;-58
2022/08/07 13:33:22;;;;;;;8.52;7.40;;;;;;;29.00;44.36;97417.84;10230570;28;20460;-56
2022/08/07 13:38:21;;;;;;;10.60;6.38;;;;;;;29.33;42.27;97421.44;10227796;28;20100;-56
2022/08/07 13:43:21;;;;;;;7.90;6.68;;;;;;;29.67;41.70;97418.59;10225956;28;20039;-56
2022/08/07 13:48:23;;;;;;;8.93;7.47;;;;;;;30.23;41.29;97415.59;10220749;28;20074;-57
2022/08/07 13:53:27;;;;;;;8.98;7.53;;;;;;;30.40;38.30;97414.19;10217735;28;20058;-57
2022/08/07 14:03:47;;;;;;;8.35;7.32;;;;;;;30.84;38.97;97408.53;10218781;28;20062;-57
2022/08/07 14:08:50;;;;;;;7.68;6.90;;;;;;;31.13;37.76;97409.47;10223801;28;20129;-57
2022/08/07 14:14:02;;;;;;;8.35;7.10;;;;;;;30.64;37.27;97404.97;10220606;28;20133;-58
2022/08/07 14:19:03;;;;;;;9.82;7.65;;;;;;;30.37;38.39;97395.66;10215572;28;20066;-57
2022/08/07 14:24:05;;;;;;;8.98;7.75;;;;;;;29.86;38.38;97394.69;10226605;28;20059;-58
2022/08/07 14:29:09;;;;;;;7.97;7.18;;;;;;;29.85;38.81;97395.66;10221858;28;20050;-59
2022/08/07 14:34:10;;;;;;;9.38;7.65;;;;;;;29.57;38.70;97393.63;10216533;28;20133;-58
2022/08/07 14:39:10;;;;;;;9.80;8.05;;;;;;;29.41;39.55;97391.38;10214711;28;20109;-58
2022/08/07 14:44:12;;;;;;;8.35;7.30;;;;;;;29.49;38.76;97392.44;10211824;28;20144;-59
2022/08/07 14:49:13;;;;;;;9.70;7.70;;;;;;;29.38;38.51;97384.47;10225551;28;20074;-58
2022/08/07 14:54:16;;;;;;;9.25;7.43;;;;;;;29.27;37.74;97389.84;10214694;28;20071;-58
2022/08/07 14:59:20;;;;;;;10.63;7.97;;;;;;;29.16;38.80;97385.38;10224102;28;20082;-57
2022/08/07 15:04:21;;;;;;;10.65;7.72;;;;;;;29.08;38.62;97371.78;10210404;28;20082;-57
2022/08/07 15:09:22;;;;;;;10.27;7.55;;;;;;;29.20;38.76;97372.59;10225598;28;20081;-57
2022/08/07 15:14:24;;;;;;;10.10;7.63;;;;;;;29.35;38.99;97371.38;10217485;28;20074;-57
2022/08/07 15:19:28;;;;;;;9.30;7.60;;;;;;;29.61;38.61;97377.19;10226287;28;20181;-57
2022/08/07 15:24:34;;;;;;;8.00;7.20;;;;;;;29.59;38.26;97365.75;10231914;28;20615;-58
2022/08/07 15:29:38;;;;;;;9.10;7.90;;;;;;;29.63;38.00;97364.53;10225160;28;20122;-57
2022/08/07 15:34:42;;;;;;;11.35;8.63;;;;;;;29.63;38.51;97379.75;10220848;28;20146;-57
2022/08/07 15:39:47;;;;;;;9.20;7.10;;;;;;;28.27;44.75;97421.00;10217423;28;20113;-57
2022/08/07 15:44:50;;;;;;;8.30;5.78;;;;;;;26.07;51.13;97408.69;10222928;28;20149;-57
2022/08/07 15:49:51;;;;;;;8.48;5.55;;;;;;;24.83;54.47;97423.06;10211560;28;20063;-57
2022/08/07 15:54:54;;;;;;;6.97;5.40;;;;;;;24.18;56.56;97438.66;10222559;28;20081;-56
2022/08/07 15:59:55;;;;;;;13.32;5.53;;;;;;;23.79;57.22;97432.97;10234579;28;20073;-57
2022/08/07 16:04:59;;;;;;;6.32;5.00;;;;;;;23.86;56.74;97449.38;10219998;28;20061;-57
2022/08/07 16:10:29;;;;;;;7.20;4.63;;;;;;;23.99;58.73;97453.00;10219046;28;20074;-57
2022/08/07 16:15:30;;;;;;;7.07;4.90;;;;;;;23.94;58.96;97449.78;10215355;28;20595;-56
2022/08/07 16:20:57;;;;;;;7.82;5.20;;;;;;;24.02;58.40;97455.47;10236751;28;20547;-56
2022/08/07 16:26:10;;;;;;;9.02;5.50;;;;;;;24.04;58.83;97469.47;10218132;28;20066;-56
2022/08/07 16:31:44;;;;;;;8.93;5.80;;;;;;;24.06;58.60;97472.88;10227479;28;20097;-56
2022/08/07 16:37:22;;;;;;;8.40;6.20;;;;;;;24.06;59.77;97483.50;10222876;28;20112;-56
2022/08/07 16:42:54;;;;;;;8.32;5.97;;;;;;;24.06;59.91;97483.50;10247096;28;20512;-57
2022/08/07 16:48:21;;;;;;;8.48;6.70;;;;;;;24.11;60.22;97506.22;10229156;28;20595;-57
2022/08/07 16:53:53;;;;;;;10.25;8.48;;;;;;;22.99;69.73;97510.81;10240981;28;20077;-58
2022/08/07 16:59:11;;;;;;;10.93;8.75;;;;;;;22.29;75.94;97526.00;10242756;28;20449;-57
2022/08/07 17:04:52;;;;;;;14.97;9.90;;;;;;;22.07;79.64;97535.03;10238453;28;20077;-57
2022/08/07 17:10:12;;;;;;;14.23;10.43;;;;;;;21.99;82.89;97536.34;10220638;28;20089;-57
2022/08/07 17:15:14;;;;;;;12.35;9.52;;;;;;;21.94;83.82;97542.72;10210287;28;20575;-57
2022/08/07 17:20:35;;;;;;;20.23;12.25;;;;;;;21.98;85.59;97532.84;10212738;28;20069;-58
2022/08/07 17:26:09;;;;;;;18.95;11.80;;;;;;;22.03;87.35;97524.69;10207556;28;20074;-58
2022/08/07 17:31:19;;;;;;;14.43;12.00;;;;;;;22.00;88.66;97523.06;10210626;28;20066;-57
2022/08/07 17:36:27;;;;;;;16.85;12.93;;;;;;;21.95;88.99;97531.19;10225698;28;20083;-58
2022/08/07 17:41:32;;;;;;;18.40;13.73;;;;;;;21.92;89.77;97536.66;10219737;28;20149;-57
2022/08/07 17:46:45;;;;;;;17.30;14.90;;;;;;;21.89;90.17;97531.50;10209256;28;20101;-57
2022/08/07 17:51:50;;;;;;;19.38;15.40;;;;;;;21.84;90.79;97541.44;10207215;28;20058;-58
2022/08/07 17:57:03;;;;;;;17.83;14.07;;;;;;;21.70;91.35;97555.34;10232793;28;20070;-59
2022/08/07 18:02:40;;;;;;;15.48;12.70;;;;;;;21.57;91.36;97561.28;10238779;28;20069;-58
2022/08/07 18:07:42;;;;;;;15.60;13.73;;;;;;;21.45;91.87;97579.44;10205986;28;20488;-58
2022/08/07 18:13:29;;;;;;;19.23;15.38;;;;;;;21.32;92.24;97589.72;10227141;28;20050;-58
2022/08/07 18:18:42;;;;;;;22.65;15.30;;;;;;;21.24;92.67;97597.16;10228607;28;20062;-57
2022/08/07 18:24:01;;;;;;;19.80;14.07;;;;;;;21.20;93.14;97613.16;10230855;28;20110;-57
2022/08/07 18:29:24;;;;;;;19.30;15.38;;;;;;;21.18;93.05;97628.22;10228404;28;20066;-58
2022/08/07 18:34:47;;;;;;;19.48;14.93;;;;;;;21.21;93.20;97625.47;10252471;28;20082;-57
2022/08/07 18:39:51;;;;;;;17.10;14.88;;;;;;;21.20;93.24;97631.66;10227745;28;20464;-57
2022/08/07 18:45:03;;;;;;;17.58;14.35;;;;;;;21.17;93.46;97639.69;10211391;28;20066;-58
2022/08/07 18:50:40;;;;;;;20.10;16.15;;;;;;;21.12;93.27;97637.25;10247522;28;20538;-57
2022/08/07 18:55:51;;;;;;;19.23;16.17;;;;;;;21.06;93.15;97638.41;10241766;28;20077;-59
2022/08/07 19:01:08;;;;;;;18.15;15.52;;;;;;;20.85;93.51;97648.13;10241758;28;20062;-57
2022/08/07 19:06:27;;;;;;;20.83;16.70;;;;;;;20.79;93.44;97660.72;10218010;28;20078;-57
2022/08/07 19:11:59;;;;;;;19.42;16.98;;;;;;;20.67;93.59;97665.59;10214257;28;20118;-59
2022/08/07 19:17:04;;;;;;;18.92;15.70;;;;;;;20.41;95.72;97666.72;10216817;28;20069;-58
2022/08/07 19:22:22;;;;;;;17.17;15.23;;;;;;;20.34;95.77;97667.00;10222063;28;20150;-58
2022/08/07 19:27:25;;;;;;;18.90;15.93;;;;;;;20.36;95.61;97666.03;10247662;28;20093;-59
2022/08/07 19:32:26;;;;;;;20.52;16.88;;;;;;;20.29;96.57;97673.31;10210536;28;20077;-57
2022/08/07 19:37:26;;;;;;;21.98;17.52;;;;;;;20.27;97.09;97669.88;10220231;28;20141;-58
2022/08/07 19:42:28;;;;;;;21.75;18.30;;;;;;;20.18;97.16;97666.78;10215312;28;20117;-58
2022/08/07 19:47:32;;;;;;;21.27;17.48;;;;;;;20.12;97.02;97660.00;10218813;28;20065;-56
2022/08/07 19:52:31;;;;;;;21.42;17.70;;;;;;;20.15;97.12;97675.66;10212537;28;20110;-57
2022/08/07 19:57:42;;;;;;;20.88;18.20;;;;;;;20.13;96.94;97666.97;10219332;28;20764;-57
2022/08/07 20:02:52;;;;;;;20.58;17.20;;;;;;;20.06;96.97;97681.31;10217119;28;20479;-58
2022/08/07 20:07:56;;;;;;;20.20;17.23;;;;;;;20.00;96.87;97687.69;10233897;28;20073;-58
2022/08/07 20:12:57;;;;;;;22.02;17.42;;;;;;;19.96;96.91;97696.63;10214434;28;20579;-58
2022/08/07 20:17:59;;;;;;;22.23;17.67;;;;;;;19.94;97.01;97682.66;10216401;28;20070;-58
2022/08/07 20:23:08;;;;;;;25.70;19.58;;;;;;;19.96;96.86;97687.88;10229865;28;20074;-56
2022/08/07 20:28:11;;;;;;;26.10;19.85;;;;;;;19.95;97.10;97689.63;10207742;28;20054;-58
2022/08/07 20:33:13;;;;;;;26.98;19.65;;;;;;;19.93;97.03;97690.63;10225213;28;20161;-56
2022/08/07 20:38:18;;;;;;;22.38;19.20;;;;;;;19.92;97.30;97696.81;10221125;28;20069;-58
2022/08/07 20:43:23;;;;;;;25.55;20.33;;;;;;;19.82;97.08;97684.00;10230869;28;20062;-57
2022/08/07 20:48:28;;;;;;;26.50;20.50;;;;;;;19.81;97.13;97692.84;10216397;28;20619;-58
2022/08/07 20:53:31;;;;;;;24.45;19.70;;;;;;;19.77;97.29;97693.88;10246491;28;20066;-58
2022/08/07 20:58:34;;;;;;;24.88;19.95;;;;;;;19.73;97.39;97694.03;10231030;28;20073;-57
2022/08/07 21:03:38;;;;;;;24.98;19.92;;;;;;;19.71;97.45;97690.63;10222445;28;20504;-57
2022/08/07 21:08:51;;;;;;;23.65;19.27;;;;;;;19.68;97.35;97683.69;10231788;28;20058;-57
2022/08/07 21:13:53;;;;;;;24.20;19.67;;;;;;;19.60;97.36;97680.47;10236255;28;20525;-57
2022/08/07 21:18:54;;;;;;;23.77;19.85;;;;;;;19.65;97.18;97695.19;10215097;28;20073;-58
2022/08/07 21:24:42;;;;;;;24.85;20.17;;;;;;;19.64;97.14;97701.38;10231295;28;20066;-57
2022/08/07 21:30:03;;;;;;;23.10;19.13;;;;;;;19.63;97.15;97699.66;10200600;28;20118;-56
2022/08/07 21:35:11;;;;;;;26.48;20.23;;;;;;;19.60;97.11;97698.91;10212636;28;20074;-57
2022/08/07 21:40:19;;;;;;;23.27;18.58;;;;;;;19.52;97.97;97704.44;10212313;28;20464;-57
2022/08/07 21:45:34;;;;;;;22.25;18.40;;;;;;;19.37;98.03;97702.38;10240554;28;20081;-57
2022/08/07 21:50:40;;;;;;;22.98;18.48;;;;;;;19.37;97.69;97700.63;10221598;28;20078;-57
2022/08/07 21:55:44;;;;;;;23.23;17.95;;;;;;;19.06;98.86;97698.25;10244483;28;20074;-57
2022/08/07 22:00:50;;;;;;;21.60;17.00;;;;;;;18.93;99.16;97697.84;10222738;28;20465;-57
2022/08/07 22:06:14;;;;;;;23.27;17.63;;;;;;;18.92;98.63;97690.00;10216301;28;20774;-58
2022/08/07 22:11:16;;;;;;;22.00;17.65;;;;;;;18.83;99.24;97696.44;10225261;28;20487;-58
2022/08/07 22:16:26;;;;;;;25.38;18.45;;;;;;;18.80;99.21;97691.28;10227054;28;20524;-58
2022/08/07 22:21:36;;;;;;;24.98;20.52;;;;;;;18.82;99.28;97684.19;10245591;28;20064;-56
2022/08/07 22:26:45;;;;;;;29.15;21.60;;;;;;;18.78;99.74;97695.72;10231456;28;20074;-58
2022/08/07 22:31:55;;;;;;;27.95;21.15;;;;;;;18.74;99.73;97702.03;10238266;28;20069;-57
2022/08/07 22:37:13;;;;;;;31.65;24.33;;;;;;;18.62;100.00;97700.66;10219589;28;20903;-57
2022/08/07 22:42:18;;;;;;;35.05;25.23;;;;;;;18.62;100.00;97708.53;10226024;28;20093;-57
2022/08/07 22:47:27;;;;;;;34.38;25.55;;;;;;;18.63;100.00;97709.38;10233407;28;20085;-57
2022/08/07 22:52:58;;;;;;;36.35;25.65;;;;;;;18.61;100.00;97706.81;10216869;28;20059;-57
2022/08/07 22:58:28;;;;;;;37.00;24.50;;;;;;;18.59;100.00;97706.84;10215113;28;20492;-57
2022/08/07 23:03:41;;;;;;;35.20;25.63;;;;;;;18.57;100.00;97715.69;10241065;28;20472;-57
2022/08/07 23:09:15;;;;;;;37.90;26.15;;;;;;;18.53;100.00;97709.69;10217009;28;20074;-57
2022/08/07 23:14:32;;;;;;;34.85;26.30;;;;;;;18.49;100.00;97712.47;10238285;28;20066;-57
2022/08/07 23:25:30;;;;;;;37.20;26.98;;;;;;;18.39;100.00;97704.06;10225170;28;20085;-58
2022/08/07 23:30:54;;;;;;;39.90;27.50;;;;;;;18.37;100.00;97725.09;10226439;28;20058;-58
2022/08/07 23:36:08;;;;;;;37.70;26.17;;;;;;;18.33;100.00;97712.13;10234861;28;20458;-58
2022/08/07 23:41:19;;;;;;;39.50;27.20;;;;;;;18.30;100.00;97710.47;10220680;28;20113;-58
2022/08/07 23:46:23;;;;;;;41.90;28.27;;;;;;;18.28;100.00;97719.31;10225774;28;20081;-58
2022/08/07 23:51:28;;;;;;;43.20;27.98;;;;;;;18.25;100.00;97715.00;10241373;28;20708;-58